Colerain, North Carolina
Current Conditions -  °F | °C
As of 8:35 AM on Sunday 21 Dec 2014 (Local Time) from KEDE Reporting Station
NA  
Wind Chill: 31°   Ceiling: NA
Heat Index: 35°   Visibility: 10mi
Dew Point: 32°   Wind: 5mph
Humidity: 89%   Direction: 30°NNE
Pressure: 30.33"   Gusts: NA
Location:  36.2°N, 76.77°W
Report Text: KEDE 211335Z AUTO 03004KT 10SM 02/00 A3033 RMK AO2 T00170000
Loading
Personal Weather Stations






























Interactive Weather Map New forecast layout! Learn more

10-Day Weather Forecast

Advertisements
Track Severe Weather on mobile